모두
New Town Muni Airport (New Town, ND) 05D 기상
There is no TAF data available at 05D or any nearby airports.
There is no METAR data available at 05D. Showing METAR data for 08D (23 mi 북).
최근 08D METAR 이력(05D에 대한 데이터 없음)
| Date | Time (CDT) | Flight Rules | Wind Dir. | Speed | Type | Height AGL (ft) | Visibility | Temp (°C) | Temp (°F) | Dew Point (°C) | Dew Point (°F) | Rel. Humid. | Pressure | Density Altitude | Remarks |
|---|---|---|---|---|---|---|---|---|---|---|---|---|---|---|---|
| 31-8월 | 01:55 | VFR | 250° | 9 kt | Clear |
10 miles | 13° | 55° | 13° | 55° | 100% | 29.80 in Hg | 2,604 ft | ||
| 31-8월 | 01:35 | VFR | 250° | 11 kt | Clear |
10 miles | 13° | 55° | 13° | 55° | 100% | 29.80 in Hg | 2,604 ft | ||
| 31-8월 | 01:15 | VFR | 260° | 7 kt | Clear |
10 miles | 13° | 55° | 13° | 55° | 100% | 29.80 in Hg | 2,604 ft | ||
| 31-8월 | 00:55 | VFR | 270° | 7 kt | Clear |
10 miles | 13° | 55° | 13° | 55° | 100% | 29.80 in Hg | 2,604 ft | ||
| 31-8월 | 00:35 | VFR | 260° | 10 kt | Clear |
10 miles | 13° | 55° | 13° | 55° | 100% | 29.80 in Hg | 2,604 ft | ||
| 31-8월 | 00:15 | VFR | 250° | 9 kt | 10 miles | 13° | 55° | 13° | 55° | 100% | 29.81 in Hg | 2,594 ft | |||
| 30-8월 | 23:55 | VFR | 260° | 6 kt | 10 miles | 13° | 55° | 13° | 55° | 100% | 29.81 in Hg | 2,594 ft | |||
| 30-8월 | 23:35 | VFR | 260° | 8 kt | 10 miles | 13° | 55° | 13° | 55° | 100% | 29.81 in Hg | 2,594 ft | |||
| 30-8월 | 23:15 | VFR | 260° | 8 kt | 10 miles | 14° | 57° | 14° | 57° | 100% | 29.81 in Hg | 2,714 ft | |||
| 30-8월 | 22:55 | VFR | 270° | 9 kt | 10 miles | 14° | 57° | 14° | 57° | 100% | 29.81 in Hg | 2,714 ft | |||
| 30-8월 | 22:35 | VFR | 260° | 7 kt | 10 miles | 14° | 57° | 14° | 57° | 100% | 29.81 in Hg | 2,714 ft | |||
| 30-8월 | 22:15 | VFR | 250° | 8 kt | 10 miles | 14° | 57° | 14° | 57° | 100% | 29.81 in Hg | 2,714 ft | |||
| 30-8월 | 21:55 | VFR | 270° | 9 kt | 10 miles | 14° | 57° | 14° | 57° | 100% | 29.81 in Hg | 2,714 ft | |||
| 30-8월 | 21:35 | VFR | 270° | 7 kt | 10 miles |
15° | 59° | 15° | 59° | 100% | 29.79 in Hg | 2,854 ft | |||
| 30-8월 | 21:15 | VFR | 300° | 5 kt | 9 miles |
16° | 60° | 15° | 59° | 94% | 29.78 in Hg | 2,984 ft | |||
| 30-8월 | 20:55 | VFR | 340° | 7 kt | 10 miles | 16° | 60° | 15° | 59° | 94% | 29.74 in Hg | 3,024 ft | |||
| 30-8월 | 20:35 | VFR | 290° | 10 kt | 10 miles | 17° | 62° | 14° | 57° | 82% | 29.80 in Hg | 3,084 ft | Wind gusting to 17 KT | ||
| 30-8월 | 20:15 | VFR | 280° | 15 kt | 10 miles | 18° | 64° | 14° | 57° | 77% | 29.80 in Hg | 3,204 ft | Wind gusting to 21 KT | ||
| 30-8월 | 19:55 | VFR | 280° | 15 kt | 10 miles | 18° | 64° | 15° | 59° | 83% | 29.79 in Hg | 3,214 ft | |||
| 30-8월 | 19:35 | VFR | 270° | 20 kt | 10 miles | 19° | 66° | 16° | 60° | 83% | 29.80 in Hg | 3,324 ft | Wind gusting to 28 KT | ||
| 30-8월 | 19:15 | VFR | 270° | 19 kt | 10 miles | 20° | 68° | 17° | 62° | 83% | 29.80 in Hg | 3,444 ft | Wind gusting to 25 KT | ||
| 30-8월 | 18:55 | VFR | 300° | 13 kt | 10 miles | 20° | 68° | 20° | 68° | 100% | 29.76 in Hg | 3,484 ft | |||
| 30-8월 | 18:35 | VFR | 310° | 11 kt | 10 miles |
20° | 68° | 20° | 68° | 100% | 29.74 in Hg | 3,504 ft | Wind gusting to 16 KT | ||
| 30-8월 | 18:15 | VFR | Calm | 5 miles | 20° | 68° | 20° | 68° | 100% | 29.74 in Hg | 3,504 ft |
로그인
| 귀하의 브라우저는 지원되지 않습니다.. 브라우저를 업그레이드하세요 |
